sensor_id;sensor_type;location;lat;lon;timestamp;pressure;altitude;pressure_sealevel;temperature;humidity
82746;BME280;72484;50.004;14.356;2023-09-12T00:01:18;97643.63;;;22.61;56.66
82746;BME280;72484;50.004;14.356;2023-09-12T00:04:07;97647.90;;;22.55;56.56
82746;BME280;72484;50.004;14.356;2023-09-12T00:06:58;97643.48;;;22.51;57.03
82746;BME280;72484;50.004;14.356;2023-09-12T00:09:46;97645.46;;;22.52;56.77
82746;BME280;72484;50.004;14.356;2023-09-12T00:12:35;97641.99;;;22.52;56.88
82746;BME280;72484;50.004;14.356;2023-09-12T00:15:23;97640.01;;;22.50;57.13
82746;BME280;72484;50.004;14.356;2023-09-12T00:18:11;97642.74;;;22.47;57.50
82746;BME280;72484;50.004;14.356;2023-09-12T00:21:00;97639.42;;;22.46;57.44
82746;BME280;72484;50.004;14.356;2023-09-12T00:23:48;97641.38;;;22.44;57.43
82746;BME280;72484;50.004;14.356;2023-09-12T00:26:36;97641.66;;;22.42;57.57
82746;BME280;72484;50.004;14.356;2023-09-12T00:29:25;97640.86;;;22.41;57.76
82746;BME280;72484;50.004;14.356;2023-09-12T00:32:13;97642.52;;;22.40;58.03
82746;BME280;72484;50.004;14.356;2023-09-12T00:35:01;97641.36;;;22.39;57.83
82746;BME280;72484;50.004;14.356;2023-09-12T00:37:50;97637.93;;;22.35;57.95
82746;BME280;72484;50.004;14.356;2023-09-12T00:40:39;97637.56;;;22.32;58.03
82746;BME280;72484;50.004;14.356;2023-09-12T00:43:27;97638.31;;;22.30;58.10
82746;BME280;72484;50.004;14.356;2023-09-12T00:46:19;97641.14;;;22.28;57.77
82746;BME280;72484;50.004;14.356;2023-09-12T00:49:10;97641.21;;;22.22;58.06
82746;BME280;72484;50.004;14.356;2023-09-12T00:52:01;97646.39;;;22.19;58.01
82746;BME280;72484;50.004;14.356;2023-09-12T00:54:50;97647.75;;;22.16;58.06
82746;BME280;72484;50.004;14.356;2023-09-12T00:57:39;97646.89;;;22.14;58.30
82746;BME280;72484;50.004;14.356;2023-09-12T01:00:29;97647.78;;;22.11;58.69
82746;BME280;72484;50.004;14.356;2023-09-12T01:03:17;97650.33;;;22.09;58.72
82746;BME280;72484;50.004;14.356;2023-09-12T01:06:06;97649.23;;;22.09;58.57
82746;BME280;72484;50.004;14.356;2023-09-12T01:08:56;97649.48;;;22.04;58.45
82746;BME280;72484;50.004;14.356;2023-09-12T01:11:45;97652.06;;;21.98;58.76
82746;BME280;72484;50.004;14.356;2023-09-12T01:14:34;97649.20;;;21.97;58.73
82746;BME280;72484;50.004;14.356;2023-09-12T01:17:22;97651.57;;;21.97;58.70
82746;BME280;72484;50.004;14.356;2023-09-12T01:20:16;97651.05;;;21.96;58.91
82746;BME280;72484;50.004;14.356;2023-09-12T01:23:24;97653.80;;;21.91;58.72
82746;BME280;72484;50.004;14.356;2023-09-12T01:26:34;97650.97;;;21.89;58.69
82746;BME280;72484;50.004;14.356;2023-09-12T01:29:28;97647.99;;;21.87;59.01
82746;BME280;72484;50.004;14.356;2023-09-12T01:32:19;97651.56;;;21.85;59.54
82746;BME280;72484;50.004;14.356;2023-09-12T01:35:09;97653.13;;;21.83;59.64
82746;BME280;72484;50.004;14.356;2023-09-12T01:37:57;97651.38;;;21.82;59.48
82746;BME280;72484;50.004;14.356;2023-09-12T01:40:48;97654.95;;;21.80;59.41
82746;BME280;72484;50.004;14.356;2023-09-12T01:43:38;97654.08;;;21.77;59.21
82746;BME280;72484;50.004;14.356;2023-09-12T01:46:28;97654.29;;;21.75;59.56
82746;BME280;72484;50.004;14.356;2023-09-12T01:49:19;97656.85;;;21.73;59.43
82746;BME280;72484;50.004;14.356;2023-09-12T01:52:09;97659.13;;;21.70;59.52
82746;BME280;72484;50.004;14.356;2023-09-12T01:54:58;97655.27;;;21.66;59.70
82746;BME280;72484;50.004;14.356;2023-09-12T01:57:48;97656.25;;;21.65;59.64
82746;BME280;72484;50.004;14.356;2023-09-12T02:00:37;97658.98;;;21.64;59.69
82746;BME280;72484;50.004;14.356;2023-09-12T02:03:25;97661.63;;;21.60;59.86
82746;BME280;72484;50.004;14.356;2023-09-12T02:06:14;97663.39;;;21.57;59.81
82746;BME280;72484;50.004;14.356;2023-09-12T02:09:03;97662.70;;;21.56;59.94
82746;BME280;72484;50.004;14.356;2023-09-12T02:11:52;97662.58;;;21.52;59.94
82746;BME280;72484;50.004;14.356;2023-09-12T02:14:40;97663.06;;;21.47;60.05
82746;BME280;72484;50.004;14.356;2023-09-12T02:17:29;97663.27;;;21.45;60.08
82746;BME280;72484;50.004;14.356;2023-09-12T02:20:18;97663.05;;;21.43;60.02
82746;BME280;72484;50.004;14.356;2023-09-12T02:23:07;97660.86;;;21.40;60.06
82746;BME280;72484;50.004;14.356;2023-09-12T02:25:57;97658.84;;;21.34;59.94
82746;BME280;72484;50.004;14.356;2023-09-12T02:28:46;97658.77;;;21.28;59.93
82746;BME280;72484;50.004;14.356;2023-09-12T02:31:35;97658.84;;;21.20;59.97
82746;BME280;72484;50.004;14.356;2023-09-12T02:34:23;97656.87;;;21.15;60.39
82746;BME280;72484;50.004;14.356;2023-09-12T02:37:12;97660.16;;;21.12;60.65
82746;BME280;72484;50.004;14.356;2023-09-12T02:40:03;97661.58;;;21.11;60.57
82746;BME280;72484;50.004;14.356;2023-09-12T02:42:53;97662.52;;;21.09;60.79
82746;BME280;72484;50.004;14.356;2023-09-12T02:45:42;97661.55;;;21.04;60.81
82746;BME280;72484;50.004;14.356;2023-09-12T02:48:31;97657.63;;;21.00;61.03
82746;BME280;72484;50.004;14.356;2023-09-12T02:51:19;97661.02;;;20.99;61.30
82746;BME280;72484;50.004;14.356;2023-09-12T02:54:08;97662.54;;;20.99;61.52
82746;BME280;72484;50.004;14.356;2023-09-12T02:56:57;97662.24;;;21.03;61.40
82746;BME280;72484;50.004;14.356;2023-09-12T02:59:46;97663.89;;;21.06;61.44
82746;BME280;72484;50.004;14.356;2023-09-12T03:02:35;97658.55;;;21.05;61.37
82746;BME280;72484;50.004;14.356;2023-09-12T03:05:23;97656.02;;;21.05;61.57
82746;BME280;72484;50.004;14.356;2023-09-12T03:08:12;97655.20;;;21.07;61.55
82746;BME280;72484;50.004;14.356;2023-09-12T03:11:01;97657.45;;;21.08;61.55
82746;BME280;72484;50.004;14.356;2023-09-12T03:13:50;97656.73;;;21.09;61.50
82746;BME280;72484;50.004;14.356;2023-09-12T03:16:38;97657.13;;;21.11;61.70
82746;BME280;72484;50.004;14.356;2023-09-12T03:19:27;97658.61;;;21.09;61.55
82746;BME280;72484;50.004;14.356;2023-09-12T03:22:18;97656.49;;;21.08;61.66
82746;BME280;72484;50.004;14.356;2023-09-12T03:25:07;97654.02;;;21.05;61.74
82746;BME280;72484;50.004;14.356;2023-09-12T03:27:56;97652.33;;;21.03;61.74
82746;BME280;72484;50.004;14.356;2023-09-12T03:30:45;97656.38;;;21.02;61.82
82746;BME280;72484;50.004;14.356;2023-09-12T03:33:34;97652.34;;;21.03;61.98
82746;BME280;72484;50.004;14.356;2023-09-12T03:36:22;97652.27;;;21.03;61.92
82746;BME280;72484;50.004;14.356;2023-09-12T03:39:10;97654.33;;;21.00;61.67
82746;BME280;72484;50.004;14.356;2023-09-12T03:42:00;97650.77;;;20.96;61.98
82746;BME280;72484;50.004;14.356;2023-09-12T03:44:48;97650.64;;;20.97;62.25
82746;BME280;72484;50.004;14.356;2023-09-12T03:47:37;97654.46;;;20.94;61.91
82746;BME280;72484;50.004;14.356;2023-09-12T03:50:25;97656.45;;;20.90;62.39
82746;BME280;72484;50.004;14.356;2023-09-12T03:53:14;97652.31;;;20.89;62.33
82746;BME280;72484;50.004;14.356;2023-09-12T03:56:03;97657.05;;;20.89;62.36
82746;BME280;72484;50.004;14.356;2023-09-12T03:58:53;97653.11;;;20.87;62.19
82746;BME280;72484;50.004;14.356;2023-09-12T04:01:45;97653.84;;;20.85;62.25
82746;BME280;72484;50.004;14.356;2023-09-12T04:04:33;97657.44;;;20.87;62.38
82746;BME280;72484;50.004;14.356;2023-09-12T04:07:22;97655.36;;;20.86;62.36
82746;BME280;72484;50.004;14.356;2023-09-12T04:10:11;97656.80;;;20.84;62.30
82746;BME280;72484;50.004;14.356;2023-09-12T04:12:59;97654.00;;;20.84;62.22
82746;BME280;72484;50.004;14.356;2023-09-12T04:15:48;97653.42;;;20.83;62.39
82746;BME280;72484;50.004;14.356;2023-09-12T04:18:38;97654.64;;;20.79;62.36
82746;BME280;72484;50.004;14.356;2023-09-12T04:21:26;97652.86;;;20.78;62.27
82746;BME280;72484;50.004;14.356;2023-09-12T04:24:14;97655.60;;;20.78;62.38
82746;BME280;72484;50.004;14.356;2023-09-12T04:27:05;97653.12;;;20.76;62.12
82746;BME280;72484;50.004;14.356;2023-09-12T04:29:54;97652.02;;;20.75;62.13
82746;BME280;72484;50.004;14.356;2023-09-12T04:32:42;97650.27;;;20.73;62.29
82746;BME280;72484;50.004;14.356;2023-09-12T04:35:34;97655.13;;;20.66;62.27
82746;BME280;72484;50.004;14.356;2023-09-12T04:38:23;97660.17;;;20.56;62.58
82746;BME280;72484;50.004;14.356;2023-09-12T04:41:13;97662.80;;;20.54;62.64
82746;BME280;72484;50.004;14.356;2023-09-12T04:44:04;97663.76;;;20.52;62.58
82746;BME280;72484;50.004;14.356;2023-09-12T04:46:53;97658.81;;;20.51;62.70
82746;BME280;72484;50.004;14.356;2023-09-12T04:49:43;97657.71;;;20.52;62.80
82746;BME280;72484;50.004;14.356;2023-09-12T04:52:31;97659.81;;;20.53;62.52
82746;BME280;72484;50.004;14.356;2023-09-12T04:55:20;97665.09;;;20.54;62.49
82746;BME280;72484;50.004;14.356;2023-09-12T04:58:09;97661.78;;;20.53;62.74
82746;BME280;72484;50.004;14.356;2023-09-12T05:00:57;97666.47;;;20.53;62.60
82746;BME280;72484;50.004;14.356;2023-09-12T05:03:46;97670.77;;;20.55;62.70
82746;BME280;72484;50.004;14.356;2023-09-12T05:06:34;97668.63;;;20.58;62.38
82746;BME280;72484;50.004;14.356;2023-09-12T05:09:23;97671.75;;;20.59;62.00
82746;BME280;72484;50.004;14.356;2023-09-12T05:12:11;97675.15;;;20.59;61.53
82746;BME280;72484;50.004;14.356;2023-09-12T05:15:01;97677.10;;;20.56;61.40
82746;BME280;72484;50.004;14.356;2023-09-12T05:17:50;97675.40;;;20.53;61.46
82746;BME280;72484;50.004;14.356;2023-09-12T05:20:38;97674.33;;;20.52;61.62
82746;BME280;72484;50.004;14.356;2023-09-12T05:23:27;97675.08;;;20.51;61.65
82746;BME280;72484;50.004;14.356;2023-09-12T05:26:15;97676.10;;;20.50;61.78
82746;BME280;72484;50.004;14.356;2023-09-12T05:29:04;97677.96;;;20.51;61.81
82746;BME280;72484;50.004;14.356;2023-09-12T05:31:53;97673.10;;;20.55;61.55
82746;BME280;72484;50.004;14.356;2023-09-12T05:34:42;97675.46;;;20.57;61.49
82746;BME280;72484;50.004;14.356;2023-09-12T05:37:32;97677.08;;;20.55;61.66
82746;BME280;72484;50.004;14.356;2023-09-12T05:40:21;97677.08;;;20.57;61.38
82746;BME280;72484;50.004;14.356;2023-09-12T05:43:10;97682.13;;;20.57;61.31
82746;BME280;72484;50.004;14.356;2023-09-12T05:45:58;97681.20;;;20.55;61.73
82746;BME280;72484;50.004;14.356;2023-09-12T05:48:47;97683.99;;;20.57;61.80
82746;BME280;72484;50.004;14.356;2023-09-12T05:51:35;97685.20;;;20.61;61.57
82746;BME280;72484;50.004;14.356;2023-09-12T05:54:23;97686.08;;;20.65;61.78
82746;BME280;72484;50.004;14.356;2023-09-12T05:57:12;97687.67;;;20.71;61.67
82746;BME280;72484;50.004;14.356;2023-09-12T06:00:01;97691.11;;;20.78;61.82
82746;BME280;72484;50.004;14.356;2023-09-12T06:02:53;97693.15;;;20.84;61.82
82746;BME280;72484;50.004;14.356;2023-09-12T06:05:41;97693.73;;;20.87;61.91
82746;BME280;72484;50.004;14.356;2023-09-12T06:08:29;97695.45;;;20.94;61.85
82746;BME280;72484;50.004;14.356;2023-09-12T06:11:18;97695.98;;;20.97;61.64
82746;BME280;72484;50.004;14.356;2023-09-12T06:14:07;97695.45;;;20.98;61.38
82746;BME280;72484;50.004;14.356;2023-09-12T06:16:55;97693.05;;;21.02;61.37
82746;BME280;72484;50.004;14.356;2023-09-12T06:19:44;97693.30;;;21.08;61.53
82746;BME280;72484;50.004;14.356;2023-09-12T06:22:33;97695.16;;;21.18;61.36
82746;BME280;72484;50.004;14.356;2023-09-12T06:25:22;97695.27;;;21.26;61.35
82746;BME280;72484;50.004;14.356;2023-09-12T06:28:11;97696.89;;;21.30;61.09
82746;BME280;72484;50.004;14.356;2023-09-12T06:31:01;97698.36;;;21.34;60.85
82746;BME280;72484;50.004;14.356;2023-09-12T06:33:49;97694.63;;;21.39;60.79
82746;BME280;72484;50.004;14.356;2023-09-12T06:36:38;97695.87;;;21.44;60.77
82746;BME280;72484;50.004;14.356;2023-09-12T06:39:28;97697.20;;;21.51;60.73
82746;BME280;72484;50.004;14.356;2023-09-12T06:42:17;97698.92;;;21.58;60.75
82746;BME280;72484;50.004;14.356;2023-09-12T06:45:07;97697.38;;;21.58;61.04
82746;BME280;72484;50.004;14.356;2023-09-12T06:47:56;97697.84;;;21.53;61.08
82746;BME280;72484;50.004;14.356;2023-09-12T06:50:44;97696.84;;;21.52;61.03
82746;BME280;72484;50.004;14.356;2023-09-12T06:53:32;97700.76;;;21.51;60.83
82746;BME280;72484;50.004;14.356;2023-09-12T06:56:21;97702.06;;;21.53;60.86
82746;BME280;72484;50.004;14.356;2023-09-12T06:59:09;97702.38;;;21.53;61.08
82746;BME280;72484;50.004;14.356;2023-09-12T07:01:58;97705.09;;;21.61;60.83
82746;BME280;72484;50.004;14.356;2023-09-12T07:04:46;97709.13;;;21.68;60.58
82746;BME280;72484;50.004;14.356;2023-09-12T07:07:35;97708.16;;;21.69;60.65
82746;BME280;72484;50.004;14.356;2023-09-12T07:10:24;97708.39;;;21.70;60.85
82746;BME280;72484;50.004;14.356;2023-09-12T07:13:13;97711.66;;;21.76;60.62
82746;BME280;72484;50.004;14.356;2023-09-12T07:16:02;97714.68;;;21.84;60.50
82746;BME280;72484;50.004;14.356;2023-09-12T07:18:51;97710.48;;;21.91;60.46
82746;BME280;72484;50.004;14.356;2023-09-12T07:21:40;97706.66;;;21.94;60.58
82746;BME280;72484;50.004;14.356;2023-09-12T07:24:29;97710.59;;;22.00;60.74
82746;BME280;72484;50.004;14.356;2023-09-12T07:27:18;97708.04;;;22.08;60.60
82746;BME280;72484;50.004;14.356;2023-09-12T07:30:09;97705.67;;;22.15;60.55
82746;BME280;72484;50.004;14.356;2023-09-12T07:32:58;97703.65;;;22.22;60.52
82746;BME280;72484;50.004;14.356;2023-09-12T07:35:47;97706.36;;;22.29;60.14
82746;BME280;72484;50.004;14.356;2023-09-12T07:38:35;97706.60;;;22.35;59.96
82746;BME280;72484;50.004;14.356;2023-09-12T07:41:27;97705.57;;;22.38;60.05
82746;BME280;72484;50.004;14.356;2023-09-12T07:44:16;97704.85;;;22.42;60.11
82746;BME280;72484;50.004;14.356;2023-09-12T07:47:04;97706.63;;;22.50;59.98
82746;BME280;72484;50.004;14.356;2023-09-12T07:49:55;97708.81;;;22.58;59.47
82746;BME280;72484;50.004;14.356;2023-09-12T07:52:44;97708.92;;;22.63;59.47
82746;BME280;72484;50.004;14.356;2023-09-12T07:55:34;97710.45;;;22.68;59.76
82746;BME280;72484;50.004;14.356;2023-09-12T07:58:31;97709.95;;;22.71;59.73
82746;BME280;72484;50.004;14.356;2023-09-12T08:01:20;97708.64;;;22.77;59.72
82746;BME280;72484;50.004;14.356;2023-09-12T08:04:08;97709.02;;;22.83;59.37
82746;BME280;72484;50.004;14.356;2023-09-12T08:06:57;97711.98;;;22.90;59.38
82746;BME280;72484;50.004;14.356;2023-09-12T08:09:53;97715.69;;;22.96;59.13
82746;BME280;72484;50.004;14.356;2023-09-12T08:12:42;97716.75;;;23.03;58.91
82746;BME280;72484;50.004;14.356;2023-09-12T08:15:31;97719.66;;;23.10;59.23
82746;BME280;72484;50.004;14.356;2023-09-12T08:18:19;97717.84;;;23.19;59.12
82746;BME280;72484;50.004;14.356;2023-09-12T08:21:08;97715.75;;;23.26;58.33
82746;BME280;72484;50.004;14.356;2023-09-12T08:23:56;97714.61;;;23.32;58.14
82746;BME280;72484;50.004;14.356;2023-09-12T08:26:44;97713.90;;;23.36;58.75
82746;BME280;72484;50.004;14.356;2023-09-12T08:29:33;97719.90;;;23.44;58.74
82746;BME280;72484;50.004;14.356;2023-09-12T08:32:22;97718.91;;;23.52;58.36
82746;BME280;72484;50.004;14.356;2023-09-12T08:35:11;97716.20;;;23.59;57.92
82746;BME280;72484;50.004;14.356;2023-09-12T08:38:00;97719.01;;;23.65;58.03
82746;BME280;72484;50.004;14.356;2023-09-12T08:40:51;97719.73;;;23.71;58.17
82746;BME280;72484;50.004;14.356;2023-09-12T08:43:39;97720.46;;;23.80;57.68
82746;BME280;72484;50.004;14.356;2023-09-12T08:46:28;97719.87;;;23.90;57.71
82746;BME280;72484;50.004;14.356;2023-09-12T08:49:17;97723.75;;;23.99;57.52
82746;BME280;72484;50.004;14.356;2023-09-12T08:52:06;97721.63;;;24.05;57.04
82746;BME280;72484;50.004;14.356;2023-09-12T08:54:54;97713.21;;;24.12;56.91
82746;BME280;72484;50.004;14.356;2023-09-12T08:57:44;97714.02;;;24.19;56.81
82746;BME280;72484;50.004;14.356;2023-09-12T09:00:37;97714.39;;;24.25;56.72
82746;BME280;72484;50.004;14.356;2023-09-12T09:03:26;97714.09;;;24.33;57.03
82746;BME280;72484;50.004;14.356;2023-09-12T09:06:16;97714.63;;;24.42;56.58
82746;BME280;72484;50.004;14.356;2023-09-12T09:09:07;97712.77;;;24.51;56.19
82746;BME280;72484;50.004;14.356;2023-09-12T09:11:57;97713.83;;;24.60;56.67
82746;BME280;72484;50.004;14.356;2023-09-12T09:14:45;97713.90;;;24.65;56.65
82746;BME280;72484;50.004;14.356;2023-09-12T09:17:33;97711.77;;;24.72;56.85
82746;BME280;72484;50.004;14.356;2023-09-12T09:20:27;97715.54;;;24.78;57.02
82746;BME280;72484;50.004;14.356;2023-09-12T09:23:16;97714.10;;;24.86;56.54
82746;BME280;72484;50.004;14.356;2023-09-12T09:26:05;97711.71;;;24.96;56.75
82746;BME280;72484;50.004;14.356;2023-09-12T09:29:08;97707.13;;;25.02;55.66
82746;BME280;72484;50.004;14.356;2023-09-12T09:31:57;97702.48;;;25.09;55.45
82746;BME280;72484;50.004;14.356;2023-09-12T09:34:46;97702.81;;;25.17;55.41
82746;BME280;72484;50.004;14.356;2023-09-12T09:37:35;97706.53;;;25.23;55.31
82746;BME280;72484;50.004;14.356;2023-09-12T09:40:24;97702.70;;;25.28;54.42
82746;BME280;72484;50.004;14.356;2023-09-12T09:43:13;97698.88;;;25.31;55.03
82746;BME280;72484;50.004;14.356;2023-09-12T09:46:06;97695.39;;;25.34;54.20
82746;BME280;72484;50.004;14.356;2023-09-12T09:48:56;97694.83;;;25.38;54.59
82746;BME280;72484;50.004;14.356;2023-09-12T09:51:46;97697.40;;;25.46;54.64
82746;BME280;72484;50.004;14.356;2023-09-12T09:54:34;97694.39;;;25.56;53.89
82746;BME280;72484;50.004;14.356;2023-09-12T09:57:26;97692.23;;;25.64;53.50
82746;BME280;72484;50.004;14.356;2023-09-12T10:00:15;97688.70;;;25.73;53.92
82746;BME280;72484;50.004;14.356;2023-09-12T10:03:05;97686.63;;;25.84;53.39
82746;BME280;72484;50.004;14.356;2023-09-12T10:05:55;97684.05;;;25.92;52.23
82746;BME280;72484;50.004;14.356;2023-09-12T10:08:51;97680.35;;;25.98;51.95
82746;BME280;72484;50.004;14.356;2023-09-12T10:11:42;97680.71;;;26.03;51.68
82746;BME280;72484;50.004;14.356;2023-09-12T10:14:31;97680.71;;;26.06;50.99
82746;BME280;72484;50.004;14.356;2023-09-12T10:17:24;97676.23;;;26.08;51.11
82746;BME280;72484;50.004;14.356;2023-09-12T10:20:19;97675.09;;;26.11;51.22
82746;BME280;72484;50.004;14.356;2023-09-12T10:23:14;97669.16;;;26.16;51.48
82746;BME280;72484;50.004;14.356;2023-09-12T10:26:07;97663.39;;;26.27;51.33
82746;BME280;72484;50.004;14.356;2023-09-12T10:28:58;97664.23;;;26.34;51.49
82746;BME280;72484;50.004;14.356;2023-09-12T10:31:48;97661.15;;;26.39;51.16
82746;BME280;72484;50.004;14.356;2023-09-12T10:34:38;97659.41;;;26.48;50.48
82746;BME280;72484;50.004;14.356;2023-09-12T10:37:30;97657.11;;;26.49;50.19
82746;BME280;72484;50.004;14.356;2023-09-12T10:40:21;97654.56;;;26.51;49.96
82746;BME280;72484;50.004;14.356;2023-09-12T10:43:10;97651.06;;;26.55;50.38
82746;BME280;72484;50.004;14.356;2023-09-12T10:45:59;97649.05;;;26.61;51.13
82746;BME280;72484;50.004;14.356;2023-09-12T10:48:51;97649.56;;;26.70;51.29
82746;BME280;72484;50.004;14.356;2023-09-12T10:51:44;97651.47;;;26.77;50.52
82746;BME280;72484;50.004;14.356;2023-09-12T10:54:41;97651.20;;;26.85;49.71
82746;BME280;72484;50.004;14.356;2023-09-12T10:57:30;97652.69;;;26.94;48.49
82746;BME280;72484;50.004;14.356;2023-09-12T11:00:19;97651.98;;;27.00;46.98
82746;BME280;72484;50.004;14.356;2023-09-12T11:03:38;97654.34;;;26.99;45.99
82746;BME280;72484;50.004;14.356;2023-09-12T11:06:31;97656.79;;;26.99;45.88
82746;BME280;72484;50.004;14.356;2023-09-12T11:09:23;97657.93;;;27.00;45.63
82746;BME280;72484;50.004;14.356;2023-09-12T11:12:37;97660.23;;;27.00;46.02
82746;BME280;72484;50.004;14.356;2023-09-12T11:15:27;97656.54;;;26.99;46.56
82746;BME280;72484;50.004;14.356;2023-09-12T11:18:18;97658.98;;;26.98;47.12
82746;BME280;72484;50.004;14.356;2023-09-12T11:21:07;97657.05;;;26.95;46.51
82746;BME280;72484;50.004;14.356;2023-09-12T11:23:57;97656.81;;;26.92;45.82
82746;BME280;72484;50.004;14.356;2023-09-12T11:26:57;97652.18;;;26.91;46.88
82746;BME280;72484;50.004;14.356;2023-09-12T11:29:46;97653.17;;;26.87;46.24
82746;BME280;72484;50.004;14.356;2023-09-12T11:32:37;97652.36;;;26.86;46.36
82746;BME280;72484;50.004;14.356;2023-09-12T11:35:26;97654.70;;;26.87;46.99
82746;BME280;72484;50.004;14.356;2023-09-12T11:38:28;97652.34;;;26.88;45.82
82746;BME280;72484;50.004;14.356;2023-09-12T11:41:40;97651.51;;;26.90;44.74
82746;BME280;72484;50.004;14.356;2023-09-12T11:44:30;97651.13;;;26.93;45.58
82746;BME280;72484;50.004;14.356;2023-09-12T11:47:21;97646.27;;;26.94;46.28
82746;BME280;72484;50.004;14.356;2023-09-12T11:50:27;97644.03;;;26.95;46.19
82746;BME280;72484;50.004;14.356;2023-09-12T11:53:21;97644.60;;;26.98;45.53
82746;BME280;72484;50.004;14.356;2023-09-12T11:56:13;97642.08;;;27.00;45.59
82746;BME280;72484;50.004;14.356;2023-09-12T11:59:01;97643.70;;;27.03;45.98
82746;BME280;72484;50.004;14.356;2023-09-12T12:01:50;97640.85;;;27.05;46.70
82746;BME280;72484;50.004;14.356;2023-09-12T12:04:39;97639.42;;;27.09;45.47
82746;BME280;72484;50.004;14.356;2023-09-12T12:07:28;97636.39;;;27.12;45.23
82746;BME280;72484;50.004;14.356;2023-09-12T12:10:17;97637.36;;;27.15;45.09
82746;BME280;72484;50.004;14.356;2023-09-12T12:13:06;97640.22;;;27.18;45.90
82746;BME280;72484;50.004;14.356;2023-09-12T12:15:55;97640.52;;;27.18;47.26
82746;BME280;72484;50.004;14.356;2023-09-12T12:18:44;97639.17;;;27.19;47.53
82746;BME280;72484;50.004;14.356;2023-09-12T12:21:32;97638.16;;;27.22;46.48
82746;BME280;72484;50.004;14.356;2023-09-12T12:24:22;97632.09;;;27.29;45.42
82746;BME280;72484;50.004;14.356;2023-09-12T12:27:10;97632.17;;;27.40;44.68
82746;BME280;72484;50.004;14.356;2023-09-12T12:29:59;97629.09;;;27.52;44.34
82746;BME280;72484;50.004;14.356;2023-09-12T12:32:49;97625.20;;;27.66;43.73
82746;BME280;72484;50.004;14.356;2023-09-12T12:35:38;97627.97;;;27.79;42.77
82746;BME280;72484;50.004;14.356;2023-09-12T12:38:27;97627.54;;;27.86;41.96
82746;BME280;72484;50.004;14.356;2023-09-12T12:41:21;97625.27;;;27.89;42.81
82746;BME280;72484;50.004;14.356;2023-09-12T12:44:11;97622.75;;;27.92;43.45
82746;BME280;72484;50.004;14.356;2023-09-12T12:47:03;97621.01;;;27.94;43.00
82746;BME280;72484;50.004;14.356;2023-09-12T12:49:55;97617.02;;;27.95;43.38
82746;BME280;72484;50.004;14.356;2023-09-12T12:52:45;97618.06;;;27.97;44.10
82746;BME280;72484;50.004;14.356;2023-09-12T12:55:35;97613.79;;;28.01;43.22
82746;BME280;72484;50.004;14.356;2023-09-12T12:58:26;97611.55;;;28.07;43.07
82746;BME280;72484;50.004;14.356;2023-09-12T13:01:14;97606.87;;;28.14;42.65
82746;BME280;72484;50.004;14.356;2023-09-12T13:04:03;97602.80;;;28.17;43.34
82746;BME280;72484;50.004;14.356;2023-09-12T13:06:52;97598.39;;;28.21;43.13
82746;BME280;72484;50.004;14.356;2023-09-12T13:09:41;97593.70;;;28.24;42.68
82746;BME280;72484;50.004;14.356;2023-09-12T13:12:30;97596.40;;;28.26;42.48
82746;BME280;72484;50.004;14.356;2023-09-12T13:15:19;97593.95;;;28.26;42.25
82746;BME280;72484;50.004;14.356;2023-09-12T13:18:07;97593.45;;;28.23;41.94
82746;BME280;72484;50.004;14.356;2023-09-12T13:20:56;97596.23;;;28.17;42.63
82746;BME280;72484;50.004;14.356;2023-09-12T13:23:45;97594.20;;;28.10;42.75
82746;BME280;72484;50.004;14.356;2023-09-12T13:26:35;97594.02;;;28.05;42.56
82746;BME280;72484;50.004;14.356;2023-09-12T13:29:23;97590.68;;;28.03;42.63
82746;BME280;72484;50.004;14.356;2023-09-12T13:32:11;97589.16;;;28.05;42.88
82746;BME280;72484;50.004;14.356;2023-09-12T13:35:02;97587.33;;;28.04;42.62
82746;BME280;72484;50.004;14.356;2023-09-12T13:37:51;97584.23;;;28.02;42.77
82746;BME280;72484;50.004;14.356;2023-09-12T13:40:40;97576.94;;;28.00;42.80
82746;BME280;72484;50.004;14.356;2023-09-12T13:43:30;97573.67;;;27.98;42.34
82746;BME280;72484;50.004;14.356;2023-09-12T13:46:19;97578.07;;;27.97;42.75
82746;BME280;72484;50.004;14.356;2023-09-12T13:49:07;97573.98;;;27.98;41.97
82746;BME280;72484;50.004;14.356;2023-09-12T13:51:55;97572.91;;;28.01;41.62
82746;BME280;72484;50.004;14.356;2023-09-12T13:54:44;97569.22;;;28.04;41.52
82746;BME280;72484;50.004;14.356;2023-09-12T13:57:32;97567.83;;;28.08;41.89
82746;BME280;72484;50.004;14.356;2023-09-12T14:00:21;97564.02;;;28.11;42.22
82746;BME280;72484;50.004;14.356;2023-09-12T14:03:10;97559.43;;;28.14;41.71
82746;BME280;72484;50.004;14.356;2023-09-12T14:05:58;97557.15;;;28.18;41.44
82746;BME280;72484;50.004;14.356;2023-09-12T14:08:47;97557.33;;;28.22;41.18
82746;BME280;72484;50.004;14.356;2023-09-12T14:11:35;97557.92;;;28.25;41.15
82746;BME280;72484;50.004;14.356;2023-09-12T14:14:24;97560.13;;;28.28;40.40
82746;BME280;72484;50.004;14.356;2023-09-12T14:17:12;97557.54;;;28.31;40.13
82746;BME280;72484;50.004;14.356;2023-09-12T14:20:01;97556.61;;;28.34;40.80
82746;BME280;72484;50.004;14.356;2023-09-12T14:22:49;97553.81;;;28.36;40.63
82746;BME280;72484;50.004;14.356;2023-09-12T14:25:37;97551.45;;;28.38;40.66
82746;BME280;72484;50.004;14.356;2023-09-12T14:28:26;97553.88;;;28.40;40.90
82746;BME280;72484;50.004;14.356;2023-09-12T14:31:15;97553.06;;;28.42;40.69
82746;BME280;72484;50.004;14.356;2023-09-12T14:34:04;97555.36;;;28.42;40.71
82746;BME280;72484;50.004;14.356;2023-09-12T14:36:55;97555.30;;;28.43;40.30
82746;BME280;72484;50.004;14.356;2023-09-12T14:39:43;97554.77;;;28.44;40.34
82746;BME280;72484;50.004;14.356;2023-09-12T14:42:32;97557.35;;;28.46;40.16
82746;BME280;72484;50.004;14.356;2023-09-12T14:45:21;97558.55;;;28.48;40.24
82746;BME280;72484;50.004;14.356;2023-09-12T14:48:12;97562.14;;;28.49;39.81